Volga-4011 — UBNJ — position and weather

sailwx.info

Track history (hours):
 
Tides and Currents Weather Stations Pressure Air Temp Water Temp Dewpoint Dewpoint Depression Visibility Wind Speed Wind Dir Waves Ship Positions

Volga-4011

Last reported at 2017-Sep-06 16:19 UTC. Time now 2017-Sep-22 22:47 UTC.
Position N 31°03' E 122°12'.
Warning: this ship's position is 16 days out of date.

Length 140 m; draft 3.6 m.

Type: Ship. MMSI: 273358200.

Date/timePositionNaut miles runAvg speedWind from/ knotsBaromVisibWave heightAir tempDewpointWater temp
2017-Sep-06 16:19N 31°03' E 122°12'3 8.2
2017-Sep-06 16:00N 31°03' E 122°09'4 7.4
2017-Sep-06 15:30N 31°04' E 122°05'4 7.0
2017-Sep-06 15:00N 31°05' E 122°01'3 6.0
2017-Sep-06 14:30N 31°06' E 121°58'3 6.0
2017-Sep-06 14:00N 31°08' E 121°55'3 5.9
2017-Sep-06 13:30N 31°09' E 121°52'4 7.3
2017-Sep-06 13:00N 31°12' E 121°49'4 8.3
2017-Sep-06 12:30N 31°15' E 121°46'611.2
2017-Sep-06 12:01N 31°19' E 121°42'611.8
2017-Sep-06 11:30N 31°23' E 121°36'611.6
2017-Sep-06 11:01N 31°26' E 121°30'4 8.1
2017-Sep-06 10:31N 31°29' E 121°27'510.3
2017-Sep-06 10:00N 31°32' E 121°22'610.3
2017-Sep-06 09:27N 31°36' E 121°17'911.4
2017-Sep-06 08:41N 31°41' E 121°10'210.7
2017-Sep-06 08:29N 31°43' E 121°08'5 0.2
2017-Sep-05 11:24N 31°45' E 121°02'0 0.0
2017-Sep-05 11:00N 31°45' E 121°02'0 0.0
2017-Sep-05 06:19N 31°45' E 121°02'2 4.2
2017-Sep-05 05:51N 31°44' E 121°04'3 8.6
2017-Sep-05 05:30N 31°43' E 121°08'0 0.0
2017-Sep-05 01:28N 31°44' E 121°08'0 0.0
2017-Sep-04 20:46N 31°44' E 121°08'0 0.1
2017-Sep-04 20:16N 31°44' E 121°08'0 0.0
2017-Sep-04 19:46N 31°44' E 121°08'0 0.0
2017-Sep-04 19:22N 31°44' E 121°08'0 0.3
2017-Sep-04 18:52N 31°44' E 121°08'0 0.3
2017-Sep-04 18:28N 31°44' E 121°08'0 0.0
2017-Sep-04 15:22N 31°44' E 121°08'0 0.0
2017-Sep-04 14:52N 31°44' E 121°08'0 0.0
2017-Sep-04 14:28N 31°44' E 121°08'0 0.1
2017-Sep-04 13:46N 31°44' E 121°08'0 0.0
2017-Sep-04 03:25N 31°44' E 121°08'5 0.6
2017-Sep-03 19:41N 31°45' E 121°02'0 0.0
2017-Sep-03 08:30N 31°45' E 121°02'0 0.0
2017-Sep-03 06:25N 31°45' E 121°02'2 5.2
2017-Sep-03 05:59N 31°44' E 121°05'3 7.3
2017-Sep-03 05:30N 31°43' E 121°09'0 0.2
2017-Sep-03 05:00N 31°43' E 121°09'0 0.0
2017-Sep-03 03:30N 31°43' E 121°09'0 0.0
2017-Sep-03 03:00N 31°43' E 121°09'0 0.0
2017-Sep-03 02:30N 31°43' E 121°09'0 0.1
2017-Sep-03 01:54N 31°43' E 121°09'0 0.0
2017-Sep-02 22:17N 31°43' E 121°09'0 0.0
2017-Sep-02 21:59N 31°43' E 121°09'0 0.0
2017-Sep-02 21:05N 31°43' E 121°09'0 0.0
2017-Sep-02 20:53N 31°43' E 121°09'0 0.0
2017-Sep-02 16:08N 31°43' E 121°09'0 0.0
2017-Sep-02 15:41N 31°43' E 121°09'0 0.0
2017-Sep-02 12:17N 31°43' E 121°09'0 0.1
2017-Sep-02 11:41N 31°43' E 121°09'0 0.0
2017-Sep-02 11:23N 31°43' E 121°09'0 0.0
2017-Sep-02 10:59N 31°43' E 121°09'0 0.0
2017-Sep-02 10:29N 31°43' E 121°09'0 0.0
2017-Sep-02 09:41N 31°43' E 121°09'0 0.0
2017-Sep-02 09:29N 31°43' E 121°09'0 0.0
2017-Sep-02 08:47N 31°43' E 121°09'0 0.0
2017-Sep-02 08:29N 31°43' E 121°09'0 0.0
2017-Sep-02 07:59N 31°43' E 121°09'0 0.0
2017-Sep-02 07:29N 31°43' E 121°09'0 0.0
2017-Sep-02 06:47N 31°43' E 121°09'0 0.0
2017-Sep-02 06:11N 31°43' E 121°09'0 0.0
2017-Sep-02 05:59N 31°43' E 121°09'0 0.1
2017-Sep-02 05:29N 31°43' E 121°09'2 3.6
2017-Sep-02 05:00N 31°41' E 121°10'5 8.3
2017-Sep-02 04:21N 31°38' E 121°15'3 8.6
2017-Sep-02 04:00N 31°36' E 121°17'4 8.7
2017-Sep-02 03:30N 31°33' E 121°21'5 9.2
2017-Sep-02 03:00N 31°30' E 121°25'5 9.4
2017-Sep-02 02:30N 31°27' E 121°29'5 9.5
2017-Sep-02 02:00N 31°24' E 121°33'5 9.7
2017-Sep-02 01:30N 31°22' E 121°38'5 9.7
2017-Sep-02 01:00N 31°19' E 121°43'510.3
2017-Sep-02 00:30N 31°15' E 121°47'510.5
2017-Sep-02 00:00N 31°11' E 121°51'510.2
2017-Sep-01 23:30N 31°08' E 121°56'510.0
2017-Sep-01 23:00N 31°05' E 122°01'5 9.8
2017-Sep-01 22:30N 31°04' E 122°06'5 9.6
2017-Sep-01 21:59N 31°03' E 122°12'5 9.2
2017-Sep-01 21:28N 31°03' E 122°18'  
Track history (hours):
 
Tides and Currents Weather Stations Pressure Air Temp Water Temp Dewpoint Dewpoint Depression Visibility Wind Speed Wind Dir Waves Ship Positions

Volga-4011

Last reported at 2017-Sep-06 16:19 UTC. Time now 2017-Sep-22 22:47 UTC.
Position N 31°03' E 122°12'.
Warning: this ship's position is 16 days out of date.

Length 140 m; draft 3.6 m.

Type: Ship. MMSI: 273358200.

Date/timePositionNaut miles runAvg speedWind from/ knotsBaromVisibWave heightAir tempDewpointWater temp
2017-Sep-06 16:19N 31°03' E 122°12'3 8.2
2017-Sep-06 16:00N 31°03' E 122°09'4 7.4
2017-Sep-06 15:30N 31°04' E 122°05'4 7.0
2017-Sep-06 15:00N 31°05' E 122°01'3 6.0
2017-Sep-06 14:30N 31°06' E 121°58'3 6.0
2017-Sep-06 14:00N 31°08' E 121°55'3 5.9
2017-Sep-06 13:30N 31°09' E 121°52'4 7.3
2017-Sep-06 13:00N 31°12' E 121°49'4 8.3
2017-Sep-06 12:30N 31°15' E 121°46'611.2
2017-Sep-06 12:01N 31°19' E 121°42'611.8
2017-Sep-06 11:30N 31°23' E 121°36'611.6
2017-Sep-06 11:01N 31°26' E 121°30'4 8.1
2017-Sep-06 10:31N 31°29' E 121°27'510.3
2017-Sep-06 10:00N 31°32' E 121°22'610.3
2017-Sep-06 09:27N 31°36' E 121°17'911.4
2017-Sep-06 08:41N 31°41' E 121°10'210.7
2017-Sep-06 08:29N 31°43' E 121°08'5 0.2
2017-Sep-05 11:24N 31°45' E 121°02'0 0.0
2017-Sep-05 11:00N 31°45' E 121°02'0 0.0
2017-Sep-05 06:19N 31°45' E 121°02'2 4.2
2017-Sep-05 05:51N 31°44' E 121°04'3 8.6
2017-Sep-05 05:30N 31°43' E 121°08'0 0.0
2017-Sep-05 01:28N 31°44' E 121°08'0 0.0
2017-Sep-04 20:46N 31°44' E 121°08'0 0.1
2017-Sep-04 20:16N 31°44' E 121°08'0 0.0
2017-Sep-04 19:46N 31°44' E 121°08'0 0.0
2017-Sep-04 19:22N 31°44' E 121°08'0 0.3
2017-Sep-04 18:52N 31°44' E 121°08'0 0.3
2017-Sep-04 18:28N 31°44' E 121°08'0 0.0
2017-Sep-04 15:22N 31°44' E 121°08'0 0.0
2017-Sep-04 14:52N 31°44' E 121°08'0 0.0
2017-Sep-04 14:28N 31°44' E 121°08'0 0.1
2017-Sep-04 13:46N 31°44' E 121°08'0 0.0
2017-Sep-04 03:25N 31°44' E 121°08'5 0.6
2017-Sep-03 19:41N 31°45' E 121°02'0 0.0
2017-Sep-03 08:30N 31°45' E 121°02'0 0.0
2017-Sep-03 06:25N 31°45' E 121°02'2 5.2
2017-Sep-03 05:59N 31°44' E 121°05'3 7.3
2017-Sep-03 05:30N 31°43' E 121°09'0 0.2
2017-Sep-03 05:00N 31°43' E 121°09'0 0.0
2017-Sep-03 03:30N 31°43' E 121°09'0 0.0
2017-Sep-03 03:00N 31°43' E 121°09'0 0.0
2017-Sep-03 02:30N 31°43' E 121°09'0 0.1
2017-Sep-03 01:54N 31°43' E 121°09'0 0.0
2017-Sep-02 22:17N 31°43' E 121°09'0 0.0
2017-Sep-02 21:59N 31°43' E 121°09'0 0.0
2017-Sep-02 21:05N 31°43' E 121°09'0 0.0
2017-Sep-02 20:53N 31°43' E 121°09'0 0.0
2017-Sep-02 16:08N 31°43' E 121°09'0 0.0
2017-Sep-02 15:41N 31°43' E 121°09'0 0.0
2017-Sep-02 12:17N 31°43' E 121°09'0 0.1
2017-Sep-02 11:41N 31°43' E 121°09'0 0.0
2017-Sep-02 11:23N 31°43' E 121°09'0 0.0
2017-Sep-02 10:59N 31°43' E 121°09'0 0.0
2017-Sep-02 10:29N 31°43' E 121°09'0 0.0
2017-Sep-02 09:41N 31°43' E 121°09'0 0.0
2017-Sep-02 09:29N 31°43' E 121°09'0 0.0
2017-Sep-02 08:47N 31°43' E 121°09'0 0.0
2017-Sep-02 08:29N 31°43' E 121°09'0 0.0
2017-Sep-02 07:59N 31°43' E 121°09'0 0.0
2017-Sep-02 07:29N 31°43' E 121°09'0 0.0
2017-Sep-02 06:47N 31°43' E 121°09'0 0.0
2017-Sep-02 06:11N 31°43' E 121°09'0 0.0
2017-Sep-02 05:59N 31°43' E 121°09'0 0.1
2017-Sep-02 05:29N 31°43' E 121°09'2 3.6
2017-Sep-02 05:00N 31°41' E 121°10'5 8.3
2017-Sep-02 04:21N 31°38' E 121°15'3 8.6
2017-Sep-02 04:00N 31°36' E 121°17'4 8.7
2017-Sep-02 03:30N 31°33' E 121°21'5 9.2
2017-Sep-02 03:00N 31°30' E 121°25'5 9.4
2017-Sep-02 02:30N 31°27' E 121°29'5 9.5
2017-Sep-02 02:00N 31°24' E 121°33'5 9.7
2017-Sep-02 01:30N 31°22' E 121°38'5 9.7
2017-Sep-02 01:00N 31°19' E 121°43'510.3
2017-Sep-02 00:30N 31°15' E 121°47'510.5
2017-Sep-02 00:00N 31°11' E 121°51'510.2
2017-Sep-01 23:30N 31°08' E 121°56'510.0
2017-Sep-01 23:00N 31°05' E 122°01'5 9.8
2017-Sep-01 22:30N 31°04' E 122°06'5 9.6
2017-Sep-01 21:59N 31°03' E 122°12'5 9.2
2017-Sep-01 21:28N 31°03' E 122°18'  

Dump ship's entire track history